Time;durP1;ratioP1;P1;durP2;ratioP2;P2;SDS_P1;SDS_P2;PMS_P1;PMS_P2;Temp;Humidity;BMP_temperature;BMP_pressure;BME280_temperature;BME280_humidity;BME280_pressure;Samples;Min_cycle;Max_cycle;Signal;HPM_P1;HPM_P2
2021/09/05 00:02:08;;;;;;;79.03;36.83;;;16.20;99.90;;;;;;5080042;28;20203;-78
2021/09/05 00:04:35;;;;;;;75.30;37.90;;;16.10;99.90;;;;;;5074720;28;20195;-78
2021/09/05 00:07:03;;;;;;;77.80;39.27;;;16.10;99.90;;;;;;5077503;28;20278;-79
2021/09/05 00:09:30;;;;;;;71.73;36.93;;;16.20;99.90;;;;;;5075855;28;20282;-79
2021/09/05 00:11:57;;;;;;;70.77;37.00;;;16.10;99.90;;;;;;5074077;28;20708;-79
2021/09/05 00:14:24;;;;;;;84.33;39.37;;;16.00;99.90;;;;;;5074827;28;20257;-78
2021/09/05 00:16:51;;;;;;;79.53;38.17;;;15.90;99.90;;;;;;5080874;28;20281;-79
2021/09/05 00:19:18;;;;;;;82.77;40.20;;;15.90;99.90;;;;;;5074719;28;20688;-79
2021/09/05 00:21:45;;;;;;;80.43;39.23;;;16.00;99.90;;;;;;5074243;28;20294;-78
2021/09/05 00:24:13;;;;;;;82.13;39.47;;;15.90;99.90;;;;;;5086077;28;20222;-79
2021/09/05 00:26:40;;;;;;;80.17;39.23;;;16.10;99.90;;;;;;5089636;28;20307;-78
2021/09/05 00:29:07;;;;;;;85.50;38.97;;;16.00;99.90;;;;;;5083134;28;20290;-79
2021/09/05 00:31:34;;;;;;;85.40;40.20;;;15.80;99.90;;;;;;5090554;28;20200;-79
2021/09/05 00:34:03;;;;;;;84.87;41.13;;;15.70;99.90;;;;;;5090711;28;20202;-79
2021/09/05 00:36:30;;;;;;;85.60;41.33;;;15.70;99.90;;;;;;5091750;28;20214;-79
2021/09/05 00:38:57;;;;;;;86.37;39.77;;;15.60;99.90;;;;;;5089825;28;20222;-80
2021/09/05 00:41:25;;;;;;;86.37;41.03;;;15.50;99.90;;;;;;5081620;28;20231;-79
2021/09/05 00:43:54;;;;;;;90.00;40.23;;;15.50;99.90;;;;;;5083354;28;20654;-79
2021/09/05 00:46:21;;;;;;;93.10;41.70;;;15.50;99.90;;;;;;5092362;28;20222;-79
2021/09/05 00:48:48;;;;;;;93.30;41.87;;;15.50;99.90;;;;;;5092335;28;20290;-80
2021/09/05 00:51:15;;;;;;;96.60;41.73;;;15.50;99.90;;;;;;5090273;28;20683;-79
2021/09/05 00:53:42;;;;;;;86.87;41.33;;;15.50;99.90;;;;;;5078743;28;20280;-78
2021/09/05 00:56:09;;;;;;;93.80;40.87;;;15.50;99.90;;;;;;5091784;28;20293;-80
2021/09/05 00:58:38;;;;;;;99.13;43.17;;;15.60;99.90;;;;;;5084475;28;20300;-79
2021/09/05 01:01:05;;;;;;;99.50;43.47;;;15.50;99.90;;;;;;5091477;28;20289;-79
2021/09/05 01:03:32;;;;;;;94.87;42.10;;;15.40;99.90;;;;;;5090296;28;20206;-79
2021/09/05 01:05:59;;;;;;;93.03;42.57;;;15.40;99.90;;;;;;5089025;28;20201;-79
2021/09/05 01:08:27;;;;;;;98.27;43.13;;;15.40;99.90;;;;;;5082577;28;20290;-79
2021/09/05 01:10:54;;;;;;;101.77;44.13;;;15.30;99.90;;;;;;5091134;28;20217;-79
2021/09/05 01:13:21;;;;;;;98.07;43.20;;;15.30;99.90;;;;;;5090142;28;20249;-78
2021/09/05 01:15:49;;;;;;;104.00;45.03;;;15.30;99.90;;;;;;5090379;28;20191;-78
2021/09/05 01:18:16;;;;;;;106.93;46.97;;;15.30;99.90;;;;;;5092606;28;20265;-78
2021/09/05 01:20:43;;;;;;;106.77;46.13;;;15.30;99.90;;;;;;5091674;28;20225;-79
2021/09/05 01:23:10;;;;;;;109.27;47.60;;;15.30;99.90;;;;;;5082974;28;20206;-79
2021/09/05 01:25:37;;;;;;;110.80;48.17;;;15.40;99.90;;;;;;5092729;28;20207;-78
2021/09/05 01:28:08;;;;;;;106.70;46.57;;;15.40;99.90;;;;;;5091718;28;20234;-79
2021/09/05 01:30:36;;;;;;;118.03;49.00;;;15.40;99.90;;;;;;5074638;28;20208;-79
2021/09/05 01:33:03;;;;;;;107.60;46.73;;;15.40;99.90;;;;;;5082295;28;20286;-79
2021/09/05 01:35:33;;;;;;;104.80;46.53;;;15.30;99.90;;;;;;5092404;28;20206;-80
2021/09/05 01:38:00;;;;;;;107.97;47.63;;;15.20;99.90;;;;;;5090507;28;20246;-79
2021/09/05 01:40:26;;;;;;;111.40;46.23;;;15.10;99.90;;;;;;5078705;28;20241;-79
2021/09/05 01:42:53;;;;;;;109.30;46.90;;;15.10;99.90;;;;;;5092448;28;20282;-79
2021/09/05 01:45:22;;;;;;;106.80;46.00;;;15.20;99.90;;;;;;5090136;28;20281;-78
2021/09/05 01:47:49;;;;;;;112.77;47.43;;;15.20;99.90;;;;;;5089754;28;20199;-79
2021/09/05 01:50:16;;;;;;;117.60;48.83;;;15.20;99.90;;;;;;5090552;28;20286;-79
2021/09/05 01:52:43;;;;;;;113.90;46.67;;;15.10;99.90;;;;;;5090467;28;20721;-79
2021/09/05 01:55:10;;;;;;;110.67;45.57;;;15.10;99.90;;;;;;5086245;28;20238;-79
2021/09/05 01:57:37;;;;;;;113.10;47.90;;;15.10;99.90;;;;;;5076960;28;20575;-79
2021/09/05 02:00:05;;;;;;;112.83;46.13;;;15.10;99.90;;;;;;5079204;28;20291;-80
2021/09/05 02:02:34;;;;;;;105.73;46.53;;;15.10;99.90;;;;;;5076750;28;20195;-79
2021/09/05 02:05:01;;;;;;;110.13;46.67;;;15.00;99.90;;;;;;5088279;28;20760;-79
2021/09/05 02:07:28;;;;;;;110.67;45.73;;;15.00;99.90;;;;;;5090863;28;20211;-79
2021/09/05 02:09:54;;;;;;;115.07;46.40;;;15.00;99.90;;;;;;5086712;28;20301;-78
2021/09/05 02:12:22;;;;;;;112.13;46.27;;;15.00;99.90;;;;;;5080477;28;20257;-79
2021/09/05 02:14:48;;;;;;;102.60;44.53;;;15.00;99.90;;;;;;5081659;28;20226;-79
2021/09/05 02:17:15;;;;;;;103.50;44.87;;;15.00;99.90;;;;;;5079227;28;20199;-79
2021/09/05 02:19:44;;;;;;;100.13;44.10;;;15.00;99.90;;;;;;5087801;28;20230;-79
2021/09/05 02:22:11;;;;;;;112.83;45.90;;;15.00;99.90;;;;;;5090540;28;20213;-80
2021/09/05 02:24:37;;;;;;;106.07;45.57;;;14.90;99.90;;;;;;5084341;28;20282;-80
2021/09/05 02:27:05;;;;;;;118.70;47.60;;;14.90;99.90;;;;;;5075187;28;20227;-79
2021/09/05 02:29:32;;;;;;;115.00;46.47;;;14.90;99.90;;;;;;5087488;28;20234;-80
2021/09/05 02:31:59;;;;;;;114.57;45.63;;;14.80;99.90;;;;;;5091606;28;20749;-79
2021/09/05 02:34:26;;;;;;;116.83;48.07;;;14.70;99.90;;;;;;5086343;28;20560;-80
2021/09/05 02:36:54;;;;;;;130.77;48.67;;;14.70;99.90;;;;;;5088660;28;22046;-79
2021/09/05 02:39:21;;;;;;;121.30;47.37;;;14.60;99.90;;;;;;5076399;28;20309;-80
2021/09/05 02:41:48;;;;;;;122.33;48.33;;;14.60;99.90;;;;;;5080664;28;20227;-80
2021/09/05 02:44:15;;;;;;;133.63;48.77;;;14.70;99.90;;;;;;5093268;28;20260;-80
2021/09/05 02:46:41;;;;;;;131.20;49.93;;;14.70;99.90;;;;;;5094311;28;20287;-80
2021/09/05 02:49:08;;;;;;;131.00;49.80;;;14.70;99.90;;;;;;5094346;28;20235;-79
2021/09/05 02:51:37;;;;;;;132.00;50.90;;;14.70;99.90;;;;;;5093625;28;20260;-79
2021/09/05 02:54:05;;;;;;;133.53;49.63;;;14.60;99.90;;;;;;5093309;28;20242;-80
2021/09/05 02:56:32;;;;;;;132.73;49.77;;;14.60;99.90;;;;;;5094518;28;20286;-80
2021/09/05 02:58:59;;;;;;;131.93;49.97;;;14.50;99.90;;;;;;5091311;28;20218;-80
2021/09/05 03:01:26;;;;;;;132.13;49.90;;;14.60;99.90;;;;;;5083585;28;20282;-79
2021/09/05 03:03:53;;;;;;;132.93;50.53;;;14.50;99.90;;;;;;5090861;28;20248;-80
2021/09/05 03:06:20;;;;;;;124.50;48.83;;;14.50;99.90;;;;;;5094630;28;20199;-80
2021/09/05 03:08:47;;;;;;;125.87;50.33;;;14.40;99.90;;;;;;5091541;28;20278;-80
2021/09/05 03:11:15;;;;;;;132.27;50.07;;;14.40;99.90;;;;;;5094712;28;20194;-81
2021/09/05 03:13:45;;;;;;;127.60;47.53;;;14.40;99.90;;;;;;5094160;28;20587;-80
2021/09/05 03:16:13;;;;;;;139.03;49.97;;;14.40;99.90;;;;;;5094697;28;20203;-81
2021/09/05 03:18:40;;;;;;;130.50;49.93;;;14.30;99.90;;;;;;5094532;28;20616;-80
2021/09/05 03:21:07;;;;;;;130.03;50.43;;;14.30;99.90;;;;;;5087763;28;20254;-80
2021/09/05 03:23:34;;;;;;;135.17;51.23;;;14.20;99.90;;;;;;5094665;28;20298;-81
2021/09/05 03:26:01;;;;;;;141.50;51.33;;;14.20;99.90;;;;;;5088765;28;20241;-80
2021/09/05 03:28:30;;;;;;;146.43;54.47;;;14.20;99.90;;;;;;5080157;28;20684;-80
2021/09/05 03:30:57;;;;;;;137.37;52.73;;;14.30;99.90;;;;;;5081118;28;20282;-80
2021/09/05 03:33:24;;;;;;;130.47;49.73;;;14.40;99.90;;;;;;5091571;28;20203;-80
2021/09/05 03:35:51;;;;;;;134.07;50.17;;;14.40;99.90;;;;;;5088231;28;20635;-80
2021/09/05 03:38:18;;;;;;;130.33;48.80;;;14.50;99.90;;;;;;5093948;28;20275;-81
2021/09/05 03:40:45;;;;;;;123.43;46.43;;;14.40;99.90;;;;;;5090055;28;20204;-80
2021/09/05 03:43:12;;;;;;;130.90;48.10;;;14.40;99.90;;;;;;5091345;28;20198;-81
2021/09/05 03:45:40;;;;;;;124.50;47.67;;;14.30;99.90;;;;;;5080280;28;20229;-80
2021/09/05 03:48:07;;;;;;;129.37;49.40;;;14.30;99.90;;;;;;5093967;28;20207;-80
2021/09/05 03:50:34;;;;;;;131.37;48.17;;;14.20;99.90;;;;;;5093188;28;20203;-80
2021/09/05 03:53:01;;;;;;;130.80;48.60;;;14.10;99.90;;;;;;5092624;28;20741;-80
2021/09/05 03:55:28;;;;;;;124.50;47.37;;;14.10;99.90;;;;;;5089795;28;20290;-79
2021/09/05 03:57:55;;;;;;;132.03;48.70;;;14.10;99.90;;;;;;5082226;28;20423;-79
2021/09/05 04:00:22;;;;;;;137.13;49.60;;;14.00;99.90;;;;;;5081415;28;20631;-80
2021/09/05 04:02:51;;;;;;;131.53;48.67;;;14.00;99.90;;;;;;5092448;28;20202;-79
2021/09/05 04:05:18;;;;;;;126.67;48.97;;;14.00;99.90;;;;;;5086551;28;20199;-79
2021/09/05 04:08:00;;;;;;;125.87;47.87;;;14.00;99.90;;;;;;5092722;28;20256;-80
2021/09/05 04:10:27;;;;;;;122.37;46.73;;;14.10;99.90;;;;;;5092403;28;20248;-79
2021/09/05 04:12:54;;;;;;;116.97;44.93;;;14.20;99.90;;;;;;5079132;28;20198;-81
2021/09/05 04:15:21;;;;;;;122.27;44.97;;;14.40;99.90;;;;;;5092640;28;20195;-81
2021/09/05 04:17:49;;;;;;;118.60;44.50;;;14.30;99.90;;;;;;5093162;28;20282;-80
2021/09/05 04:20:17;;;;;;;132.03;46.00;;;14.20;99.90;;;;;;5092979;28;20305;-81
2021/09/05 04:22:44;;;;;;;124.80;47.80;;;14.10;99.90;;;;;;5081895;28;20233;-82
2021/09/05 04:25:13;;;;;;;124.03;46.47;;;14.00;99.90;;;;;;5092256;28;20238;-80
2021/09/05 04:27:40;;;;;;;129.13;47.10;;;13.90;99.90;;;;;;5091336;28;20256;-80
2021/09/05 04:30:08;;;;;;;127.20;46.97;;;13.90;99.90;;;;;;5091565;28;20222;-80
2021/09/05 04:32:36;;;;;;;129.03;46.57;;;13.80;99.90;;;;;;5081829;28;20603;-80
2021/09/05 04:35:05;;;;;;;124.03;45.77;;;13.90;99.90;;;;;;5089335;28;20234;-80
2021/09/05 04:37:32;;;;;;;122.93;45.87;;;13.90;99.90;;;;;;5090445;28;20230;-80
2021/09/05 04:39:59;;;;;;;128.97;47.77;;;13.90;99.90;;;;;;5087924;28;20315;-80
2021/09/05 04:42:27;;;;;;;136.07;48.60;;;13.80;99.90;;;;;;5092426;28;20365;-81
2021/09/05 04:44:54;;;;;;;126.60;48.33;;;13.70;99.90;;;;;;5086773;28;20290;-80
2021/09/05 04:47:22;;;;;;;133.17;47.03;;;13.70;99.90;;;;;;5078934;28;20343;-80
2021/09/05 04:49:49;;;;;;;131.03;48.10;;;13.70;99.90;;;;;;5092598;28;20244;-80
2021/09/05 04:52:17;;;;;;;125.37;46.17;;;13.60;99.90;;;;;;5090482;28;20234;-81
2021/09/05 04:54:44;;;;;;;127.07;46.10;;;13.60;99.90;;;;;;5092070;28;20211;-80
2021/09/05 04:57:11;;;;;;;129.93;46.60;;;13.60;99.90;;;;;;5091274;28;20198;-79
2021/09/05 04:59:38;;;;;;;134.37;48.10;;;13.60;99.90;;;;;;5084634;28;20304;-80
2021/09/05 05:02:05;;;;;;;134.83;48.00;;;13.70;99.90;;;;;;5073454;28;20282;-80
2021/09/05 05:04:32;;;;;;;124.93;46.07;;;13.70;99.90;;;;;;5092790;28;20566;-79
2021/09/05 05:06:59;;;;;;;125.57;47.57;;;13.70;99.90;;;;;;5092461;28;20199;-80
2021/09/05 05:09:27;;;;;;;122.23;46.13;;;13.60;99.90;;;;;;5088976;28;20206;-80
2021/09/05 05:11:54;;;;;;;121.20;45.63;;;13.60;99.90;;;;;;5085999;28;20253;-82
2021/09/05 05:14:21;;;;;;;123.13;45.17;;;13.60;99.90;;;;;;5088083;28;20226;-80
2021/09/05 05:16:48;;;;;;;133.10;47.63;;;13.60;99.90;;;;;;5092452;28;20227;-82
2021/09/05 05:19:15;;;;;;;121.30;46.40;;;13.60;99.90;;;;;;5091647;28;20226;-82
2021/09/05 05:21:42;;;;;;;127.37;47.03;;;13.70;99.90;;;;;;5091147;28;20214;-81
2021/09/05 05:24:09;;;;;;;123.57;46.13;;;13.70;99.90;;;;;;5091550;28;20256;-80
2021/09/05 05:26:38;;;;;;;120.37;47.17;;;13.80;99.90;;;;;;5091505;28;20244;-81
2021/09/05 05:29:04;;;;;;;125.20;49.27;;;13.90;99.90;;;;;;5087922;28;20259;-82
2021/09/05 05:31:32;;;;;;;120.53;48.70;;;14.00;99.90;;;;;;5091182;28;20665;-80
2021/09/05 05:33:58;;;;;;;112.33;48.17;;;14.00;99.90;;;;;;5091613;28;20206;-83
2021/09/05 05:36:26;;;;;;;120.17;48.17;;;14.20;99.90;;;;;;5081665;28;20608;-82
2021/09/05 05:38:53;;;;;;;119.93;47.70;;;14.20;99.90;;;;;;5085802;28;20277;-80
2021/09/05 05:41:20;;;;;;;102.20;45.57;;;14.40;99.90;;;;;;5080588;28;20265;-81
2021/09/05 05:43:48;;;;;;;99.13;44.77;;;14.50;99.90;;;;;;5080970;28;20280;-82
2021/09/05 05:46:16;;;;;;;100.30;45.77;;;14.40;99.90;;;;;;5084331;28;20222;-80
2021/09/05 05:48:43;;;;;;;94.37;42.17;;;14.40;99.90;;;;;;5081032;28;20199;-82
2021/09/05 05:51:09;;;;;;;90.97;41.80;;;14.40;99.90;;;;;;5095875;28;20222;-80
2021/09/05 05:53:37;;;;;;;94.83;39.27;;;14.40;99.90;;;;;;5114723;28;20192;-81
2021/09/05 05:56:04;;;;;;;84.90;40.23;;;14.30;99.90;;;;;;5120886;28;20187;-78
2021/09/05 05:58:31;;;;;;;93.07;39.83;;;14.20;99.90;;;;;;5102095;28;20207;-80
2021/09/05 06:00:59;;;;;;;84.27;38.60;;;14.20;99.90;;;;;;5105963;28;20222;-79
2021/09/05 06:03:26;;;;;;;89.17;40.13;;;14.20;99.90;;;;;;5110189;28;21399;-79
2021/09/05 06:05:53;;;;;;;90.90;41.73;;;14.20;99.90;;;;;;5097262;28;20199;-78
2021/09/05 06:08:20;;;;;;;94.23;42.30;;;14.10;99.90;;;;;;5099049;28;20179;-80
2021/09/05 06:10:47;;;;;;;87.97;41.87;;;14.00;99.90;;;;;;5126480;28;20191;-80
2021/09/05 06:13:14;;;;;;;92.77;42.20;;;14.10;99.90;;;;;;5121217;28;20194;-79
2021/09/05 06:15:41;;;;;;;88.23;43.03;;;14.10;99.90;;;;;;5121930;28;20206;-78
2021/09/05 06:18:10;;;;;;;88.17;42.97;;;14.20;99.90;;;;;;5085296;28;20558;-78
2021/09/05 06:20:37;;;;;;;88.60;41.50;;;14.30;99.90;;;;;;5076078;28;20314;-79
2021/09/05 06:23:03;;;;;;;90.20;41.30;;;14.20;99.90;;;;;;5085101;28;20296;-78
2021/09/05 06:25:30;;;;;;;87.03;42.27;;;14.20;99.90;;;;;;5075493;28;20199;-79
2021/09/05 06:27:57;;;;;;;86.37;41.53;;;14.40;99.90;;;;;;5074997;28;20672;-78
2021/09/05 06:30:24;;;;;;;89.93;41.67;;;14.50;99.90;;;;;;5074728;28;20230;-81
2021/09/05 06:32:51;;;;;;;84.50;38.13;;;14.60;99.90;;;;;;5090787;28;20290;-79
2021/09/05 06:35:20;;;;;;;81.83;38.43;;;14.70;99.90;;;;;;5078349;28;20215;-79
2021/09/05 06:37:47;;;;;;;86.43;37.57;;;14.80;99.90;;;;;;5078946;28;20617;-79
2021/09/05 06:40:14;;;;;;;70.37;36.83;;;14.80;99.90;;;;;;5075531;28;20294;-79
2021/09/05 06:42:41;;;;;;;76.73;37.60;;;14.80;99.90;;;;;;5078758;28;20275;-81
2021/09/05 06:45:09;;;;;;;71.93;36.43;;;14.90;99.90;;;;;;5083478;28;20295;-80
2021/09/05 06:47:35;;;;;;;67.23;34.60;;;14.80;99.90;;;;;;5074662;28;20195;-79
2021/09/05 06:50:02;;;;;;;69.30;35.07;;;14.80;99.90;;;;;;5074575;28;20241;-79
2021/09/05 06:52:31;;;;;;;68.07;34.20;;;14.90;99.90;;;;;;5090906;28;20248;-79
2021/09/05 06:54:58;;;;;;;67.40;34.63;;;15.00;99.90;;;;;;5081232;28;20618;-78
2021/09/05 06:57:26;;;;;;;68.77;33.80;;;15.10;99.90;;;;;;5083068;28;20597;-78
2021/09/05 06:59:53;;;;;;;68.87;34.13;;;15.20;99.90;;;;;;5086730;28;20311;-79
2021/09/05 07:02:21;;;;;;;66.30;32.83;;;15.40;99.90;;;;;;5083721;28;20227;-81
2021/09/05 07:04:48;;;;;;;61.77;33.47;;;15.50;99.90;;;;;;5083585;28;20207;-79
2021/09/05 07:07:15;;;;;;;64.50;33.47;;;15.60;99.90;;;;;;5078554;28;20278;-79
2021/09/05 07:09:43;;;;;;;66.77;32.90;;;15.60;99.90;;;;;;5077276;28;20281;-79
2021/09/05 07:12:10;;;;;;;66.03;32.67;;;15.70;99.90;;;;;;5087878;28;20218;-81
2021/09/05 07:14:37;;;;;;;66.33;32.13;;;15.80;99.90;;;;;;5085581;28;20298;-78
2021/09/05 07:17:04;;;;;;;64.67;33.43;;;16.00;99.90;;;;;;5083090;28;20211;-79
2021/09/05 07:19:32;;;;;;;68.90;33.03;;;16.00;99.90;;;;;;5074907;28;20274;-82
2021/09/05 07:21:59;;;;;;;63.50;32.77;;;16.00;99.90;;;;;;5080974;28;20222;-78
2021/09/05 07:24:26;;;;;;;63.03;33.17;;;15.90;99.90;;;;;;5078236;28;20287;-78
2021/09/05 07:26:54;;;;;;;60.67;32.93;;;15.90;99.90;;;;;;5076815;28;20294;-80
2021/09/05 07:29:21;;;;;;;64.07;33.03;;;16.00;99.90;;;;;;5085928;28;20233;-80
2021/09/05 07:31:48;;;;;;;64.03;32.63;;;16.00;99.90;;;;;;5086354;28;20666;-80
2021/09/05 07:34:15;;;;;;;60.03;31.57;;;16.10;99.90;;;;;;5085808;28;20256;-81
2021/09/05 07:36:42;;;;;;;60.53;31.03;;;16.20;99.90;;;;;;5080382;28;20230;-82
2021/09/05 07:39:10;;;;;;;63.73;33.43;;;16.40;99.90;;;;;;5078514;28;20206;-80
2021/09/05 07:41:37;;;;;;;59.60;32.07;;;16.50;99.90;;;;;;5084126;28;20242;-80
2021/09/05 07:44:06;;;;;;;59.80;32.07;;;16.70;99.90;;;;;;5083125;28;20291;-79
2021/09/05 07:46:33;;;;;;;64.53;32.93;;;16.70;99.90;;;;;;5086533;28;20729;-79
2021/09/05 07:49:00;;;;;;;63.30;31.87;;;16.80;99.90;;;;;;5086551;28;20612;-80
2021/09/05 07:51:27;;;;;;;60.13;32.43;;;16.80;99.90;;;;;;5077614;28;20245;-79
2021/09/05 07:53:54;;;;;;;59.00;32.57;;;16.80;99.90;;;;;;5076049;28;20214;-80
2021/09/05 07:56:22;;;;;;;57.77;31.70;;;17.00;99.90;;;;;;5087130;28;20202;-80
2021/09/05 07:58:49;;;;;;;57.77;31.13;;;17.10;99.90;;;;;;5079930;28;20213;-80
2021/09/05 08:01:17;;;;;;;66.07;33.70;;;17.10;99.90;;;;;;5085292;28;20218;-80
2021/09/05 08:03:44;;;;;;;60.97;33.10;;;17.20;99.90;;;;;;5085384;28;20294;-81
2021/09/05 08:06:11;;;;;;;61.13;32.00;;;17.30;99.90;;;;;;5080584;28;20223;-80
2021/09/05 08:08:40;;;;;;;65.23;33.10;;;17.40;99.90;;;;;;5073609;28;20316;-81
2021/09/05 08:11:08;;;;;;;59.00;33.23;;;17.40;99.90;;;;;;5089189;28;20286;-81
2021/09/05 08:13:35;;;;;;;64.30;32.77;;;17.50;99.90;;;;;;5077600;28;20603;-80
2021/09/05 08:16:02;;;;;;;59.17;33.03;;;17.60;99.90;;;;;;5081701;28;20282;-78
2021/09/05 08:18:32;;;;;;;61.37;33.30;;;17.70;99.90;;;;;;5078302;28;20195;-80
2021/09/05 08:20:59;;;;;;;62.77;32.77;;;17.50;99.90;;;;;;5082354;28;20708;-80
2021/09/05 08:23:26;;;;;;;59.77;33.57;;;17.80;99.90;;;;;;5085668;28;20209;-80
2021/09/05 08:25:53;;;;;;;60.47;34.07;;;17.80;99.90;;;;;;5078806;28;20295;-79
2021/09/05 08:28:20;;;;;;;65.70;33.00;;;17.90;99.90;;;;;;5075509;28;20302;-79
2021/09/05 08:30:48;;;;;;;64.50;33.60;;;18.20;99.90;;;;;;5079009;28;20286;-80
2021/09/05 08:33:16;;;;;;;67.30;35.27;;;18.30;99.90;;;;;;5079208;28;20203;-80
2021/09/05 08:35:44;;;;;;;62.63;32.63;;;18.30;99.90;;;;;;5091562;28;20206;-78
2021/09/05 08:38:12;;;;;;;61.67;33.73;;;18.50;99.90;;;;;;5081896;28;20234;-80
2021/09/05 08:40:41;;;;;;;62.97;33.10;;;18.60;99.90;;;;;;5084352;28;20315;-80
2021/09/05 08:43:10;;;;;;;60.53;33.23;;;18.70;99.90;;;;;;5073949;28;20238;-81
2021/09/05 08:45:38;;;;;;;58.73;33.93;;;18.90;99.90;;;;;;5088054;28;20202;-77
2021/09/05 08:48:07;;;;;;;59.57;32.20;;;19.00;99.90;;;;;;5090277;28;20627;-78
2021/09/05 08:50:35;;;;;;;54.50;31.70;;;19.50;99.90;;;;;;5084660;28;20282;-79
2021/09/05 08:53:04;;;;;;;54.00;31.73;;;20.80;99.90;;;;;;5077390;28;20282;-78
2021/09/05 08:55:30;;;;;;;54.60;31.97;;;22.60;99.90;;;;;;5080221;28;20729;-80
2021/09/05 08:57:57;;;;;;;50.78;31.30;;;24.50;99.90;;;;;;5072954;28;20274;-78
2021/09/05 09:00:25;;;;;;;48.67;30.08;;;25.20;99.90;;;;;;5074991;28;20223;-78
2021/09/05 09:02:53;;;;;;;42.80;29.77;;;26.00;99.90;;;;;;5080313;28;20701;-80
2021/09/05 09:05:32;;;;;;;44.90;29.20;;;26.70;99.90;;;;;;5086948;28;20195;-79
2021/09/05 09:08:01;;;;;;;47.38;29.73;;;26.40;99.90;;;;;;5080752;28;20328;-79
2021/09/05 09:10:30;;;;;;;44.25;29.50;;;26.70;99.90;;;;;;5088454;28;20279;-78
2021/09/05 09:12:56;;;;;;;50.20;30.15;;;27.80;99.90;;;;;;5089378;28;20252;-79
2021/09/05 09:15:26;;;;;;;44.08;30.08;;;28.70;99.90;;;;;;5090899;28;20199;-78
2021/09/05 09:17:56;;;;;;;48.17;30.48;;;28.20;99.90;;;;;;5083598;28;20652;-78
2021/09/05 09:20:40;;;;;;;39.05;26.63;;;28.00;99.90;;;;;;5094582;28;20614;-78
2021/09/05 09:23:11;;;;;;;45.53;29.25;;;27.60;99.90;;;;;;5087482;28;20195;-80
2021/09/05 09:25:50;;;;;;;44.17;28.10;;;28.10;99.90;;;;;;5078450;28;20713;-79
2021/09/05 09:28:28;;;;;;;41.35;28.08;;;28.00;99.90;;;;;;5081594;28;20229;-78
2021/09/05 09:30:55;;;;;;;44.40;27.83;;;26.50;99.90;;;;;;5086668;28;20276;-77
2021/09/05 09:33:23;;;;;;;45.78;26.85;;;26.40;99.90;;;;;;5080606;28;20226;-77
2021/09/05 09:35:52;;;;;;;42.53;28.95;;;25.60;99.90;;;;;;5078625;28;20286;-79
2021/09/05 09:38:20;;;;;;;44.72;28.05;;;25.70;99.90;;;;;;5083354;28;20295;-77
2021/09/05 09:40:49;;;;;;;40.72;27.73;;;25.30;99.90;;;;;;5076346;28;20258;-77
2021/09/05 09:43:18;;;;;;;41.28;27.25;;;25.80;99.90;;;;;;5078918;28;20241;-78
2021/09/05 09:45:45;;;;;;;42.63;27.00;;;25.30;99.90;;;;;;5084446;28;20229;-77
2021/09/05 09:48:12;;;;;;;42.40;27.30;;;26.30;99.90;;;;;;5084799;28;20245;-78
2021/09/05 09:50:42;;;;;;;41.38;28.33;;;27.00;99.90;;;;;;5084145;28;20661;-80
2021/09/05 09:53:09;;;;;;;40.47;26.73;;;27.40;99.90;;;;;;5075551;28;20287;-78
2021/09/05 09:55:39;;;;;;;44.30;27.23;;;28.00;99.90;;;;;;5084458;28;20290;-78
2021/09/05 09:58:07;;;;;;;39.63;25.40;;;28.20;99.90;;;;;;5097903;28;20207;-78
2021/09/05 10:00:35;;;;;;;38.00;25.92;;;28.40;99.90;;;;;;5096470;28;20322;-80
2021/09/05 10:03:02;;;;;;;37.53;25.65;;;28.60;99.90;;;;;;5101191;28;20285;-79
2021/09/05 10:05:29;;;;;;;37.92;26.27;;;28.50;99.90;;;;;;5103776;28;20236;-80
2021/09/05 10:07:57;;;;;;;39.15;24.38;;;28.20;99.90;;;;;;5102008;28;20692;-80
2021/09/05 10:10:25;;;;;;;34.10;24.60;;;27.40;99.90;;;;;;5098813;28;20264;-81
2021/09/05 10:12:54;;;;;;;35.45;24.17;;;27.60;99.90;;;;;;5098939;28;20648;-78
2021/09/05 10:15:22;;;;;;;36.53;23.17;;;27.80;99.90;;;;;;5097977;28;20278;-80
2021/09/05 10:17:49;;;;;;;33.72;24.27;;;27.70;99.90;;;;;;5105618;28;20210;-82
2021/09/05 10:20:18;;;;;;;34.05;23.65;;;27.60;99.90;;;;;;5101762;28;20618;-79
2021/09/05 10:22:45;;;;;;;29.75;22.15;;;27.60;99.90;;;;;;5097796;28;20229;-80
2021/09/05 10:25:14;;;;;;;34.75;23.05;;;28.20;99.90;;;;;;5097312;28;20211;-80
2021/09/05 10:27:48;;;;;;;31.88;23.40;;;29.00;99.90;;;;;;5097418;28;20195;-79
2021/09/05 10:30:18;;;;;;;34.83;23.10;;;29.40;99.90;;;;;;5100625;28;20194;-80
2021/09/05 10:32:49;;;;;;;31.52;23.23;;;30.10;99.90;;;;;;5086191;28;20649;-81
2021/09/05 10:35:37;;;;;;;33.28;23.13;;;30.50;99.90;;;;;;5082711;28;20231;-80
2021/09/05 10:38:22;;;;;;;33.95;23.80;;;30.40;99.90;;;;;;5085901;28;20684;-79
2021/09/05 10:40:51;;;;;;;36.90;23.75;;;29.40;99.90;;;;;;5080985;28;20219;-79
2021/09/05 10:43:19;;;;;;;35.90;23.23;;;28.60;99.90;;;;;;5078557;28;20282;-80
2021/09/05 10:45:48;;;;;;;30.60;21.25;;;29.20;99.90;;;;;;5078807;28;20223;-81
2021/09/05 10:48:35;;;;;;;29.27;20.55;;;29.00;99.90;;;;;;5082066;28;20282;-80
2021/09/05 10:51:08;;;;;;;30.58;20.67;;;28.40;99.90;;;;;;5076755;28;20540;-79
2021/09/05 10:53:39;;;;;;;33.28;22.25;;;28.90;99.90;;;;;;5082429;28;20356;-81
2021/09/05 10:56:09;;;;;;;35.53;23.30;;;29.60;99.90;;;;;;5085010;28;20206;-78
2021/09/05 10:58:37;;;;;;;31.27;22.23;;;29.30;99.90;;;;;;5079811;28;20305;-77
2021/09/05 11:01:18;;;;;;;32.17;21.27;;;29.00;99.90;;;;;;5079073;28;20310;-78
2021/09/05 11:04:30;;;;;;;31.48;22.83;;;28.70;99.90;;;;;;5086012;28;20248;-78
2021/09/05 11:07:02;;;;;;;27.02;18.77;;;28.10;99.90;;;;;;5084617;28;20226;-79
2021/09/05 11:09:48;;;;;;;27.67;20.85;;;28.50;99.90;;;;;;5093215;28;20202;-78
2021/09/05 11:12:34;;;;;;;29.05;19.08;;;28.50;99.90;;;;;;5084145;28;20200;-81
2021/09/05 11:15:16;;;;;;;25.17;18.83;;;28.50;99.90;;;;;;5080817;28;20272;-79
2021/09/05 11:17:43;;;;;;;25.88;18.98;;;29.00;99.90;;;;;;5092663;28;20235;-79
2021/09/05 11:20:12;;;;;;;25.88;18.48;;;29.40;99.90;;;;;;5092851;28;20577;-78
2021/09/05 11:22:42;;;;;;;22.50;17.83;;;30.10;99.90;;;;;;5092919;28;20322;-78
2021/09/05 11:25:21;;;;;;;24.20;17.88;;;29.60;99.90;;;;;;5092824;28;20240;-80
2021/09/05 11:27:57;;;;;;;21.60;16.38;;;29.00;99.90;;;;;;5089874;28;20194;-79
2021/09/05 11:30:25;;;;;;;24.58;18.02;;;29.50;99.90;;;;;;5090246;28;20194;-79
2021/09/05 11:32:59;;;;;;;21.30;15.98;;;30.50;99.90;;;;;;5080318;28;20290;-78
2021/09/05 11:35:27;;;;;;;25.20;17.85;;;30.60;99.90;;;;;;5080990;28;20671;-80
2021/09/05 11:37:57;;;;;;;23.08;18.05;;;30.60;99.90;;;;;;5064070;28;20206;-78
2021/09/05 11:40:24;;;;;;;26.38;18.75;;;30.00;99.90;;;;;;5079385;28;20195;-79
2021/09/05 11:42:53;;;;;;;25.38;17.60;;;29.40;99.90;;;;;;5084520;28;20672;-79
2021/09/05 11:45:22;;;;;;;24.45;18.33;;;29.60;99.90;;;;;;5089103;28;20291;-79
2021/09/05 11:48:00;;;;;;;23.08;17.23;;;29.90;99.90;;;;;;5084499;28;20223;-78
2021/09/05 11:50:32;;;;;;;20.83;15.45;;;29.60;99.90;;;;;;5074564;28;20848;-78
2021/09/05 11:53:03;;;;;;;24.45;18.40;;;30.10;99.90;;;;;;5078802;28;20226;-80
2021/09/05 11:55:30;;;;;;;27.20;18.08;;;29.00;99.90;;;;;;5080275;28;20265;-78
2021/09/05 11:57:58;;;;;;;26.40;19.60;;;29.00;99.90;;;;;;5080429;28;20191;-80
2021/09/05 12:00:29;;;;;;;23.25;17.80;;;28.70;99.90;;;;;;5078060;28;20206;-80
2021/09/05 12:02:57;;;;;;;24.15;17.80;;;28.30;99.90;;;;;;5077080;28;20318;-79
2021/09/05 12:05:25;;;;;;;23.80;17.27;;;28.00;99.90;;;;;;5075725;28;20224;-78
2021/09/05 12:07:52;;;;;;;26.02;17.75;;;27.60;99.90;;;;;;5069351;28;20318;-79
2021/09/05 12:10:22;;;;;;;22.05;16.35;;;28.20;99.90;;;;;;5071030;28;20668;-78
2021/09/05 12:13:02;;;;;;;19.20;14.38;;;27.80;99.90;;;;;;5074187;28;20302;-80
2021/09/05 12:15:38;;;;;;;21.83;15.15;;;28.20;99.90;;;;;;5074758;28;20294;-79
2021/09/05 12:18:18;;;;;;;22.13;15.73;;;28.80;99.90;;;;;;5080318;28;20203;-80
2021/09/05 12:20:47;;;;;;;20.33;15.07;;;29.20;99.90;;;;;;5076761;28;20282;-81
2021/09/05 12:23:23;;;;;;;13.65;11.82;;;28.70;99.90;;;;;;5080173;28;20607;-78
2021/09/05 12:25:57;;;;;;;15.80;12.43;;;28.60;99.90;;;;;;5081266;28;20203;-79
2021/09/05 12:28:27;;;;;;;15.70;12.13;;;28.50;99.90;;;;;;5080649;28;20201;-79
2021/09/05 12:31:02;;;;;;;17.13;12.57;;;27.80;99.90;;;;;;5085623;28;20207;-79